West Branch, Pennsylvania
Current Conditions -  °F | °C
As of 1:55 PM on Tuesday 27 Jan 2015 (Local Time) from KN38 Reporting Station
Clear Clear  
Wind Chill:   Ceiling: Unl
Heat Index: 19°   Visibility: 10mi
Dew Point:   Wind: 15mph
Humidity: 46%   Direction: 360°N
Pressure: 29.79"   Gusts: 23mph
Location:  41.6755°N, 77.7071°W
Report Text: KN38 271855Z AUTO 36013G20KT 10SM CLR M07/M17 A2979 RMK AO2
Loading
Personal Weather Stations






























Interactive Weather Map New forecast layout! Learn more

10-Day Weather Forecast

Advertisements
Track Severe Weather on mobile